sensor_id;sensor_type;location;lat;lon;timestamp;temperature;humidity
23371;DHT22;11858;51.056;3.712;2023-04-24T00:00:04;10.00;99.90
23371;DHT22;11858;51.056;3.712;2023-04-24T00:02:38;10.00;99.90
23371;DHT22;11858;51.056;3.712;2023-04-24T00:05:07;9.90;99.90
23371;DHT22;11858;51.056;3.712;2023-04-24T00:07:34;9.90;99.90
23371;DHT22;11858;51.056;3.712;2023-04-24T00:10:00;10.00;99.90
23371;DHT22;11858;51.056;3.712;2023-04-24T00:12:26;10.00;99.90
23371;DHT22;11858;51.056;3.712;2023-04-24T00:14:52;9.90;99.90
23371;DHT22;11858;51.056;3.712;2023-04-24T00:17:19;10.00;99.90
23371;DHT22;11858;51.056;3.712;2023-04-24T00:19:48;9.90;99.90
23371;DHT22;11858;51.056;3.712;2023-04-24T00:22:13;9.80;99.90
23371;DHT22;11858;51.056;3.712;2023-04-24T00:24:40;10.00;99.90
23371;DHT22;11858;51.056;3.712;2023-04-24T00:27:05;9.90;99.90
23371;DHT22;11858;51.056;3.712;2023-04-24T00:29:31;9.90;99.90
23371;DHT22;11858;51.056;3.712;2023-04-24T00:31:57;9.90;99.90
23371;DHT22;11858;51.056;3.712;2023-04-24T00:34:23;9.90;99.90
23371;DHT22;11858;51.056;3.712;2023-04-24T00:36:48;9.80;99.90
23371;DHT22;11858;51.056;3.712;2023-04-24T00:39:21;9.80;99.90
23371;DHT22;11858;51.056;3.712;2023-04-24T00:41:47;9.80;99.90
23371;DHT22;11858;51.056;3.712;2023-04-24T00:44:14;9.80;99.90
23371;DHT22;11858;51.056;3.712;2023-04-24T00:46:40;9.70;99.90
23371;DHT22;11858;51.056;3.712;2023-04-24T00:49:05;9.70;99.90
23371;DHT22;11858;51.056;3.712;2023-04-24T00:51:32;9.70;99.90
23371;DHT22;11858;51.056;3.712;2023-04-24T00:53:58;9.70;99.90
23371;DHT22;11858;51.056;3.712;2023-04-24T00:56:24;9.60;99.90
23371;DHT22;11858;51.056;3.712;2023-04-24T00:58:50;9.70;99.90
23371;DHT22;11858;51.056;3.712;2023-04-24T01:01:17;9.70;99.90
23371;DHT22;11858;51.056;3.712;2023-04-24T01:03:46;9.70;99.90
23371;DHT22;11858;51.056;3.712;2023-04-24T01:06:13;9.70;99.90
23371;DHT22;11858;51.056;3.712;2023-04-24T01:08:39;9.80;99.90
23371;DHT22;11858;51.056;3.712;2023-04-24T01:11:06;9.80;99.90
23371;DHT22;11858;51.056;3.712;2023-04-24T01:13:32;9.90;99.90
23371;DHT22;11858;51.056;3.712;2023-04-24T01:15:59;9.80;99.90
23371;DHT22;11858;51.056;3.712;2023-04-24T01:18:24;9.60;99.90
23371;DHT22;11858;51.056;3.712;2023-04-24T01:20:53;9.60;99.90
23371;DHT22;11858;51.056;3.712;2023-04-24T01:23:20;9.60;99.90
23371;DHT22;11858;51.056;3.712;2023-04-24T01:25:46;9.60;99.90
23371;DHT22;11858;51.056;3.712;2023-04-24T01:28:13;9.40;99.90
23371;DHT22;11858;51.056;3.712;2023-04-24T01:30:39;9.40;99.90
23371;DHT22;11858;51.056;3.712;2023-04-24T01:33:05;9.40;99.90
23371;DHT22;11858;51.056;3.712;2023-04-24T01:35:31;9.40;99.90
23371;DHT22;11858;51.056;3.712;2023-04-24T01:37:57;9.40;99.90
23371;DHT22;11858;51.056;3.712;2023-04-24T01:40:23;9.30;99.90
23371;DHT22;11858;51.056;3.712;2023-04-24T01:42:48;9.40;99.90
23371;DHT22;11858;51.056;3.712;2023-04-24T01:45:14;9.30;99.90
23371;DHT22;11858;51.056;3.712;2023-04-24T01:47:40;9.40;99.90
23371;DHT22;11858;51.056;3.712;2023-04-24T01:50:06;9.40;99.90
23371;DHT22;11858;51.056;3.712;2023-04-24T01:52:32;9.40;99.90
23371;DHT22;11858;51.056;3.712;2023-04-24T01:55:02;9.40;99.90
23371;DHT22;11858;51.056;3.712;2023-04-24T01:57:29;9.30;99.90
23371;DHT22;11858;51.056;3.712;2023-04-24T01:59:55;9.30;99.90
23371;DHT22;11858;51.056;3.712;2023-04-24T02:02:21;9.30;99.90
23371;DHT22;11858;51.056;3.712;2023-04-24T02:04:49;9.30;99.90
23371;DHT22;11858;51.056;3.712;2023-04-24T02:07:15;9.30;99.90
23371;DHT22;11858;51.056;3.712;2023-04-24T02:09:41;9.30;99.90
23371;DHT22;11858;51.056;3.712;2023-04-24T02:12:06;9.20;99.90
23371;DHT22;11858;51.056;3.712;2023-04-24T02:14:32;9.30;99.90
23371;DHT22;11858;51.056;3.712;2023-04-24T02:16:58;9.20;99.90
23371;DHT22;11858;51.056;3.712;2023-04-24T02:19:24;9.10;99.90
23371;DHT22;11858;51.056;3.712;2023-04-24T02:21:49;9.10;99.90
23371;DHT22;11858;51.056;3.712;2023-04-24T02:24:15;9.00;99.90
23371;DHT22;11858;51.056;3.712;2023-04-24T02:26:41;9.00;99.90
23371;DHT22;11858;51.056;3.712;2023-04-24T02:29:07;9.10;99.90
23371;DHT22;11858;51.056;3.712;2023-04-24T02:31:33;9.00;99.90
23371;DHT22;11858;51.056;3.712;2023-04-24T02:33:59;9.00;99.90
23371;DHT22;11858;51.056;3.712;2023-04-24T02:36:25;9.20;99.90
23371;DHT22;11858;51.056;3.712;2023-04-24T02:38:50;9.20;99.90
23371;DHT22;11858;51.056;3.712;2023-04-24T02:41:16;9.30;99.90
23371;DHT22;11858;51.056;3.712;2023-04-24T02:43:42;9.30;99.90
23371;DHT22;11858;51.056;3.712;2023-04-24T02:46:07;9.30;99.90
23371;DHT22;11858;51.056;3.712;2023-04-24T02:48:33;9.30;99.90
23371;DHT22;11858;51.056;3.712;2023-04-24T02:50:59;9.40;99.90
23371;DHT22;11858;51.056;3.712;2023-04-24T02:53:25;9.40;99.90
23371;DHT22;11858;51.056;3.712;2023-04-24T02:55:50;9.40;99.90
23371;DHT22;11858;51.056;3.712;2023-04-24T02:58:16;9.30;99.90
23371;DHT22;11858;51.056;3.712;2023-04-24T03:00:42;9.40;99.90
23371;DHT22;11858;51.056;3.712;2023-04-24T03:03:08;9.40;99.90
23371;DHT22;11858;51.056;3.712;2023-04-24T03:05:34;9.40;99.90
23371;DHT22;11858;51.056;3.712;2023-04-24T03:08:00;9.50;99.90
23371;DHT22;11858;51.056;3.712;2023-04-24T03:10:26;9.50;99.90
23371;DHT22;11858;51.056;3.712;2023-04-24T03:12:51;9.40;99.90
23371;DHT22;11858;51.056;3.712;2023-04-24T03:15:17;9.40;99.90
23371;DHT22;11858;51.056;3.712;2023-04-24T03:17:43;9.40;99.90
23371;DHT22;11858;51.056;3.712;2023-04-24T03:20:09;9.30;99.90
23371;DHT22;11858;51.056;3.712;2023-04-24T03:22:35;9.30;99.90
23371;DHT22;11858;51.056;3.712;2023-04-24T03:25:01;9.40;99.90
23371;DHT22;11858;51.056;3.712;2023-04-24T03:27:27;9.30;99.90
23371;DHT22;11858;51.056;3.712;2023-04-24T03:29:52;9.40;99.90
23371;DHT22;11858;51.056;3.712;2023-04-24T03:32:21;9.30;99.90
23371;DHT22;11858;51.056;3.712;2023-04-24T03:34:48;9.20;99.90
23371;DHT22;11858;51.056;3.712;2023-04-24T03:37:14;9.40;99.90
23371;DHT22;11858;51.056;3.712;2023-04-24T03:39:40;9.30;99.90
23371;DHT22;11858;51.056;3.712;2023-04-24T03:42:06;9.30;99.90
23371;DHT22;11858;51.056;3.712;2023-04-24T03:44:31;9.30;99.90
23371;DHT22;11858;51.056;3.712;2023-04-24T03:46:58;9.20;99.90
23371;DHT22;11858;51.056;3.712;2023-04-24T03:49:24;9.20;99.90
23371;DHT22;11858;51.056;3.712;2023-04-24T03:51:50;9.20;99.90
23371;DHT22;11858;51.056;3.712;2023-04-24T03:54:16;9.30;99.90
23371;DHT22;11858;51.056;3.712;2023-04-24T03:56:41;9.20;99.90
23371;DHT22;11858;51.056;3.712;2023-04-24T03:59:07;9.20;99.90
23371;DHT22;11858;51.056;3.712;2023-04-24T04:01:33;9.20;99.90
23371;DHT22;11858;51.056;3.712;2023-04-24T04:04:02;9.20;99.90
23371;DHT22;11858;51.056;3.712;2023-04-24T04:06:27;9.10;99.90
23371;DHT22;11858;51.056;3.712;2023-04-24T04:08:53;9.10;99.90
23371;DHT22;11858;51.056;3.712;2023-04-24T04:11:19;9.10;99.90
23371;DHT22;11858;51.056;3.712;2023-04-24T04:13:45;9.00;99.90
23371;DHT22;11858;51.056;3.712;2023-04-24T04:16:13;9.10;99.90
23371;DHT22;11858;51.056;3.712;2023-04-24T04:18:39;9.10;99.90
23371;DHT22;11858;51.056;3.712;2023-04-24T04:21:04;9.10;99.90
23371;DHT22;11858;51.056;3.712;2023-04-24T04:23:30;9.00;99.90
23371;DHT22;11858;51.056;3.712;2023-04-24T04:25:57;9.00;99.90
23371;DHT22;11858;51.056;3.712;2023-04-24T04:28:23;9.00;99.90
23371;DHT22;11858;51.056;3.712;2023-04-24T04:30:50;9.10;99.90
23371;DHT22;11858;51.056;3.712;2023-04-24T04:33:19;9.10;99.90
23371;DHT22;11858;51.056;3.712;2023-04-24T04:35:45;9.00;99.90
23371;DHT22;11858;51.056;3.712;2023-04-24T04:38:14;9.00;99.90
23371;DHT22;11858;51.056;3.712;2023-04-24T04:40:40;9.00;99.90
23371;DHT22;11858;51.056;3.712;2023-04-24T04:43:06;9.00;99.90
23371;DHT22;11858;51.056;3.712;2023-04-24T04:45:32;9.00;99.90
23371;DHT22;11858;51.056;3.712;2023-04-24T04:48:00;8.90;99.90
23371;DHT22;11858;51.056;3.712;2023-04-24T04:50:27;9.00;99.90
23371;DHT22;11858;51.056;3.712;2023-04-24T04:52:53;9.00;99.90
23371;DHT22;11858;51.056;3.712;2023-04-24T04:55:18;9.00;99.90
23371;DHT22;11858;51.056;3.712;2023-04-24T04:57:45;9.10;99.90
23371;DHT22;11858;51.056;3.712;2023-04-24T05:00:11;9.00;99.90
23371;DHT22;11858;51.056;3.712;2023-04-24T05:02:38;9.00;99.90
23371;DHT22;11858;51.056;3.712;2023-04-24T05:05:05;8.90;99.90
23371;DHT22;11858;51.056;3.712;2023-04-24T05:07:31;8.80;99.90
23371;DHT22;11858;51.056;3.712;2023-04-24T05:09:57;8.80;99.90
23371;DHT22;11858;51.056;3.712;2023-04-24T05:12:23;8.90;99.90
23371;DHT22;11858;51.056;3.712;2023-04-24T05:14:48;8.90;99.90
23371;DHT22;11858;51.056;3.712;2023-04-24T05:17:15;9.00;99.90
23371;DHT22;11858;51.056;3.712;2023-04-24T05:19:42;9.10;99.90
23371;DHT22;11858;51.056;3.712;2023-04-24T05:22:07;9.10;99.90
23371;DHT22;11858;51.056;3.712;2023-04-24T05:24:35;8.90;99.90
23371;DHT22;11858;51.056;3.712;2023-04-24T05:27:01;9.00;99.90
23371;DHT22;11858;51.056;3.712;2023-04-24T05:29:28;9.00;99.90
23371;DHT22;11858;51.056;3.712;2023-04-24T05:31:56;9.00;99.90
23371;DHT22;11858;51.056;3.712;2023-04-24T05:34:22;9.00;99.90
23371;DHT22;11858;51.056;3.712;2023-04-24T05:36:47;8.90;99.90
23371;DHT22;11858;51.056;3.712;2023-04-24T05:39:14;9.00;99.90
23371;DHT22;11858;51.056;3.712;2023-04-24T05:41:40;9.10;99.90
23371;DHT22;11858;51.056;3.712;2023-04-24T05:44:06;9.10;99.90
23371;DHT22;11858;51.056;3.712;2023-04-24T05:46:31;9.10;99.90
23371;DHT22;11858;51.056;3.712;2023-04-24T05:48:57;9.00;99.90
23371;DHT22;11858;51.056;3.712;2023-04-24T05:51:23;9.00;99.90
23371;DHT22;11858;51.056;3.712;2023-04-24T05:53:49;9.00;99.90
23371;DHT22;11858;51.056;3.712;2023-04-24T05:56:15;9.00;99.90
23371;DHT22;11858;51.056;3.712;2023-04-24T05:58:41;9.10;99.90
23371;DHT22;11858;51.056;3.712;2023-04-24T06:01:07;9.20;99.90
23371;DHT22;11858;51.056;3.712;2023-04-24T06:03:32;9.10;99.90
23371;DHT22;11858;51.056;3.712;2023-04-24T06:05:58;9.30;99.90
23371;DHT22;11858;51.056;3.712;2023-04-24T06:08:24;9.30;99.90
23371;DHT22;11858;51.056;3.712;2023-04-24T06:10:50;9.50;99.90
23371;DHT22;11858;51.056;3.712;2023-04-24T06:13:16;9.60;99.90
23371;DHT22;11858;51.056;3.712;2023-04-24T06:15:43;9.80;99.90
23371;DHT22;11858;51.056;3.712;2023-04-24T06:18:09;9.50;99.90
23371;DHT22;11858;51.056;3.712;2023-04-24T06:20:38;9.50;99.90
23371;DHT22;11858;51.056;3.712;2023-04-24T06:23:03;9.50;99.90
23371;DHT22;11858;51.056;3.712;2023-04-24T06:25:29;9.40;99.90
23371;DHT22;11858;51.056;3.712;2023-04-24T06:27:55;9.50;99.90
23371;DHT22;11858;51.056;3.712;2023-04-24T06:30:21;9.50;99.90
23371;DHT22;11858;51.056;3.712;2023-04-24T06:32:47;9.60;99.90
23371;DHT22;11858;51.056;3.712;2023-04-24T06:35:12;9.90;99.90
23371;DHT22;11858;51.056;3.712;2023-04-24T06:37:42;10.00;99.90
23371;DHT22;11858;51.056;3.712;2023-04-24T06:40:08;10.00;99.90
23371;DHT22;11858;51.056;3.712;2023-04-24T06:42:35;9.90;99.90
23371;DHT22;11858;51.056;3.712;2023-04-24T06:45:01;9.90;99.90
23371;DHT22;11858;51.056;3.712;2023-04-24T06:47:27;9.80;99.90
23371;DHT22;11858;51.056;3.712;2023-04-24T06:49:52;9.80;99.90
23371;DHT22;11858;51.056;3.712;2023-04-24T06:52:19;9.90;99.90
23371;DHT22;11858;51.056;3.712;2023-04-24T06:54:45;10.00;99.90
23371;DHT22;11858;51.056;3.712;2023-04-24T06:57:10;10.00;99.90
23371;DHT22;11858;51.056;3.712;2023-04-24T06:59:36;10.20;99.90
23371;DHT22;11858;51.056;3.712;2023-04-24T07:02:02;10.20;99.90
23371;DHT22;11858;51.056;3.712;2023-04-24T07:04:29;10.20;99.90
23371;DHT22;11858;51.056;3.712;2023-04-24T07:06:54;10.40;99.90
23371;DHT22;11858;51.056;3.712;2023-04-24T07:09:27;10.50;99.90
23371;DHT22;11858;51.056;3.712;2023-04-24T07:11:53;10.40;99.90
23371;DHT22;11858;51.056;3.712;2023-04-24T07:14:19;10.30;99.90
23371;DHT22;11858;51.056;3.712;2023-04-24T07:16:46;10.20;99.90
23371;DHT22;11858;51.056;3.712;2023-04-24T07:19:12;10.20;99.90
23371;DHT22;11858;51.056;3.712;2023-04-24T07:21:38;10.20;99.90
23371;DHT22;11858;51.056;3.712;2023-04-24T07:24:04;10.30;99.90
23371;DHT22;11858;51.056;3.712;2023-04-24T07:26:30;10.40;99.90
23371;DHT22;11858;51.056;3.712;2023-04-24T07:28:56;10.50;99.90
23371;DHT22;11858;51.056;3.712;2023-04-24T07:31:22;10.50;99.90
23371;DHT22;11858;51.056;3.712;2023-04-24T07:33:48;10.60;99.90
23371;DHT22;11858;51.056;3.712;2023-04-24T07:36:14;10.70;99.90
23371;DHT22;11858;51.056;3.712;2023-04-24T07:38:47;10.50;99.90
23371;DHT22;11858;51.056;3.712;2023-04-24T07:41:13;10.50;99.90
23371;DHT22;11858;51.056;3.712;2023-04-24T07:43:39;10.50;99.90
23371;DHT22;11858;51.056;3.712;2023-04-24T07:46:06;10.40;99.90
23371;DHT22;11858;51.056;3.712;2023-04-24T07:48:32;10.30;99.90
23371;DHT22;11858;51.056;3.712;2023-04-24T07:50:57;10.20;99.90
23371;DHT22;11858;51.056;3.712;2023-04-24T07:53:23;10.30;99.90
23371;DHT22;11858;51.056;3.712;2023-04-24T07:55:49;10.50;99.90
23371;DHT22;11858;51.056;3.712;2023-04-24T07:58:14;10.50;99.90
23371;DHT22;11858;51.056;3.712;2023-04-24T08:00:40;10.60;99.90
23371;DHT22;11858;51.056;3.712;2023-04-24T08:03:06;10.90;99.90
23371;DHT22;11858;51.056;3.712;2023-04-24T08:05:31;11.70;99.90
23371;DHT22;11858;51.056;3.712;2023-04-24T08:07:58;12.90;99.90
23371;DHT22;11858;51.056;3.712;2023-04-24T08:10:24;13.80;99.90
23371;DHT22;11858;51.056;3.712;2023-04-24T08:12:50;14.60;99.90
23371;DHT22;11858;51.056;3.712;2023-04-24T08:15:16;14.30;99.90
23371;DHT22;11858;51.056;3.712;2023-04-24T08:17:42;14.30;99.90
23371;DHT22;11858;51.056;3.712;2023-04-24T08:20:08;13.50;99.90
23371;DHT22;11858;51.056;3.712;2023-04-24T08:22:39;12.90;99.90
23371;DHT22;11858;51.056;3.712;2023-04-24T08:25:05;13.20;99.90
23371;DHT22;11858;51.056;3.712;2023-04-24T08:27:31;14.50;99.90
23371;DHT22;11858;51.056;3.712;2023-04-24T08:29:57;14.60;99.90
23371;DHT22;11858;51.056;3.712;2023-04-24T08:32:24;14.70;99.90
23371;DHT22;11858;51.056;3.712;2023-04-24T08:34:49;15.40;99.90
23371;DHT22;11858;51.056;3.712;2023-04-24T08:37:18;15.80;99.90
23371;DHT22;11858;51.056;3.712;2023-04-24T08:39:43;16.20;99.90
23371;DHT22;11858;51.056;3.712;2023-04-24T08:42:11;16.70;99.90
23371;DHT22;11858;51.056;3.712;2023-04-24T08:44:38;16.90;99.90
23371;DHT22;11858;51.056;3.712;2023-04-24T08:47:05;16.40;99.90
23371;DHT22;11858;51.056;3.712;2023-04-24T08:49:33;15.90;99.90
23371;DHT22;11858;51.056;3.712;2023-04-24T08:52:02;14.80;99.90
23371;DHT22;11858;51.056;3.712;2023-04-24T08:54:28;14.30;99.90
23371;DHT22;11858;51.056;3.712;2023-04-24T08:56:58;13.80;99.90
23371;DHT22;11858;51.056;3.712;2023-04-24T08:59:27;13.30;99.90
23371;DHT22;11858;51.056;3.712;2023-04-24T09:01:53;13.10;99.90
23371;DHT22;11858;51.056;3.712;2023-04-24T09:04:20;13.30;99.90
23371;DHT22;11858;51.056;3.712;2023-04-24T09:06:48;13.40;99.90
23371;DHT22;11858;51.056;3.712;2023-04-24T09:09:16;13.30;99.90
23371;DHT22;11858;51.056;3.712;2023-04-24T09:11:43;12.90;99.90
23371;DHT22;11858;51.056;3.712;2023-04-24T09:14:09;12.70;99.90
23371;DHT22;11858;51.056;3.712;2023-04-24T09:16:36;12.70;99.90
23371;DHT22;11858;51.056;3.712;2023-04-24T09:19:01;12.60;99.90
23371;DHT22;11858;51.056;3.712;2023-04-24T09:21:35;12.70;99.90
23371;DHT22;11858;51.056;3.712;2023-04-24T09:24:06;12.80;99.90
23371;DHT22;11858;51.056;3.712;2023-04-24T09:26:35;12.80;99.90
23371;DHT22;11858;51.056;3.712;2023-04-24T09:29:01;12.90;99.90
23371;DHT22;11858;51.056;3.712;2023-04-24T09:31:29;12.90;99.90
23371;DHT22;11858;51.056;3.712;2023-04-24T09:34:01;13.00;99.90
23371;DHT22;11858;51.056;3.712;2023-04-24T09:36:33;13.00;99.90
23371;DHT22;11858;51.056;3.712;2023-04-24T09:39:00;13.10;99.90
23371;DHT22;11858;51.056;3.712;2023-04-24T09:41:27;13.30;99.90
23371;DHT22;11858;51.056;3.712;2023-04-24T09:43:54;13.60;99.90
23371;DHT22;11858;51.056;3.712;2023-04-24T09:46:20;14.30;99.90
23371;DHT22;11858;51.056;3.712;2023-04-24T09:48:49;14.40;99.90
23371;DHT22;11858;51.056;3.712;2023-04-24T09:51:14;14.20;99.90
23371;DHT22;11858;51.056;3.712;2023-04-24T09:53:45;14.30;99.90
23371;DHT22;11858;51.056;3.712;2023-04-24T09:56:11;14.30;99.90
23371;DHT22;11858;51.056;3.712;2023-04-24T09:58:40;14.50;99.90
23371;DHT22;11858;51.056;3.712;2023-04-24T10:01:06;14.40;99.90
23371;DHT22;11858;51.056;3.712;2023-04-24T10:03:35;14.10;99.90
23371;DHT22;11858;51.056;3.712;2023-04-24T10:06:02;13.70;99.90
23371;DHT22;11858;51.056;3.712;2023-04-24T10:08:34;14.00;99.90
23371;DHT22;11858;51.056;3.712;2023-04-24T10:11:01;14.30;99.90
23371;DHT22;11858;51.056;3.712;2023-04-24T10:13:28;14.60;99.90
23371;DHT22;11858;51.056;3.712;2023-04-24T10:15:54;14.60;99.90
23371;DHT22;11858;51.056;3.712;2023-04-24T10:18:20;14.50;99.90
23371;DHT22;11858;51.056;3.712;2023-04-24T10:20:47;14.50;99.90
23371;DHT22;11858;51.056;3.712;2023-04-24T10:23:13;14.50;99.90
23371;DHT22;11858;51.056;3.712;2023-04-24T10:25:38;14.20;99.90
23371;DHT22;11858;51.056;3.712;2023-04-24T10:28:04;14.40;99.90
23371;DHT22;11858;51.056;3.712;2023-04-24T10:30:32;14.50;99.90
23371;DHT22;11858;51.056;3.712;2023-04-24T10:33:06;14.70;99.90
23371;DHT22;11858;51.056;3.712;2023-04-24T10:35:36;14.90;99.90
23371;DHT22;11858;51.056;3.712;2023-04-24T10:38:05;15.10;99.90
23371;DHT22;11858;51.056;3.712;2023-04-24T10:40:34;15.30;99.90
23371;DHT22;11858;51.056;3.712;2023-04-24T10:43:05;14.80;99.90
23371;DHT22;11858;51.056;3.712;2023-04-24T10:45:35;14.50;99.90
23371;DHT22;11858;51.056;3.712;2023-04-24T10:48:01;14.40;99.90
23371;DHT22;11858;51.056;3.712;2023-04-24T10:50:28;14.60;99.90
23371;DHT22;11858;51.056;3.712;2023-04-24T10:53:06;14.50;99.90
23371;DHT22;11858;51.056;3.712;2023-04-24T10:55:51;14.50;99.90
23371;DHT22;11858;51.056;3.712;2023-04-24T10:58:22;14.60;99.90
23371;DHT22;11858;51.056;3.712;2023-04-24T11:00:59;14.60;99.90
23371;DHT22;11858;51.056;3.712;2023-04-24T11:03:27;14.70;99.90
23371;DHT22;11858;51.056;3.712;2023-04-24T11:08:40;14.70;99.90
23371;DHT22;11858;51.056;3.712;2023-04-24T11:11:15;14.80;99.90
23371;DHT22;11858;51.056;3.712;2023-04-24T11:16:28;17.70;99.90
23371;DHT22;11858;51.056;3.712;2023-04-24T11:19:04;18.60;99.90
23371;DHT22;11858;51.056;3.712;2023-04-24T11:21:43;17.90;99.90
23371;DHT22;11858;51.056;3.712;2023-04-24T11:26:48;16.80;99.90
23371;DHT22;11858;51.056;3.712;2023-04-24T11:29:15;16.70;99.90
23371;DHT22;11858;51.056;3.712;2023-04-24T11:31:41;16.20;99.90
23371;DHT22;11858;51.056;3.712;2023-04-24T11:34:14;16.30;99.90
23371;DHT22;11858;51.056;3.712;2023-04-24T11:36:46;15.90;99.90
23371;DHT22;11858;51.056;3.712;2023-04-24T11:39:12;15.70;99.90
23371;DHT22;11858;51.056;3.712;2023-04-24T11:41:38;15.70;99.90
23371;DHT22;11858;51.056;3.712;2023-04-24T11:44:06;16.10;99.90
23371;DHT22;11858;51.056;3.712;2023-04-24T11:46:32;16.40;99.90
23371;DHT22;11858;51.056;3.712;2023-04-24T11:48:59;16.70;99.90
23371;DHT22;11858;51.056;3.712;2023-04-24T11:51:26;16.90;99.90
23371;DHT22;11858;51.056;3.712;2023-04-24T11:53:55;16.40;99.90
23371;DHT22;11858;51.056;3.712;2023-04-24T11:56:22;16.20;99.90
23371;DHT22;11858;51.056;3.712;2023-04-24T11:58:48;16.10;99.90
23371;DHT22;11858;51.056;3.712;2023-04-24T12:01:14;16.60;99.90
23371;DHT22;11858;51.056;3.712;2023-04-24T12:03:40;16.80;99.90
23371;DHT22;11858;51.056;3.712;2023-04-24T12:06:10;17.10;99.90
23371;DHT22;11858;51.056;3.712;2023-04-24T12:08:37;16.90;99.90
23371;DHT22;11858;51.056;3.712;2023-04-24T12:11:04;17.00;99.90
23371;DHT22;11858;51.056;3.712;2023-04-24T12:13:32;17.00;99.90
23371;DHT22;11858;51.056;3.712;2023-04-24T12:15:59;16.80;99.90
23371;DHT22;11858;51.056;3.712;2023-04-24T12:18:24;16.50;99.90
23371;DHT22;11858;51.056;3.712;2023-04-24T12:20:51;16.50;99.90
23371;DHT22;11858;51.056;3.712;2023-04-24T12:23:32;16.20;99.90
23371;DHT22;11858;51.056;3.712;2023-04-24T12:26:00;16.30;99.90
23371;DHT22;11858;51.056;3.712;2023-04-24T12:28:35;16.40;99.90
23371;DHT22;11858;51.056;3.712;2023-04-24T12:31:01;16.70;99.90
23371;DHT22;11858;51.056;3.712;2023-04-24T12:33:27;16.80;99.90
23371;DHT22;11858;51.056;3.712;2023-04-24T12:35:53;16.70;99.90
23371;DHT22;11858;51.056;3.712;2023-04-24T12:38:24;16.80;99.90
23371;DHT22;11858;51.056;3.712;2023-04-24T12:41:03;16.80;99.90
23371;DHT22;11858;51.056;3.712;2023-04-24T12:43:29;16.40;99.90
23371;DHT22;11858;51.056;3.712;2023-04-24T12:45:55;16.10;99.90
23371;DHT22;11858;51.056;3.712;2023-04-24T12:48:21;16.10;99.90
23371;DHT22;11858;51.056;3.712;2023-04-24T12:50:47;17.10;99.90
23371;DHT22;11858;51.056;3.712;2023-04-24T12:53:13;17.40;99.90
23371;DHT22;11858;51.056;3.712;2023-04-24T12:55:39;17.10;99.90
23371;DHT22;11858;51.056;3.712;2023-04-24T12:58:05;17.00;99.90
23371;DHT22;11858;51.056;3.712;2023-04-24T13:00:31;16.80;99.90
23371;DHT22;11858;51.056;3.712;2023-04-24T13:02:56;17.50;99.90
23371;DHT22;11858;51.056;3.712;2023-04-24T13:05:22;18.40;99.90
23371;DHT22;11858;51.056;3.712;2023-04-24T13:07:48;19.20;99.90
23371;DHT22;11858;51.056;3.712;2023-04-24T13:10:13;19.90;99.90
23371;DHT22;11858;51.056;3.712;2023-04-24T13:12:39;20.30;99.90
23371;DHT22;11858;51.056;3.712;2023-04-24T13:15:06;20.70;99.90
23371;DHT22;11858;51.056;3.712;2023-04-24T13:17:32;20.90;99.90
23371;DHT22;11858;51.056;3.712;2023-04-24T13:19:58;21.10;99.90
23371;DHT22;11858;51.056;3.712;2023-04-24T13:22:24;20.10;99.90
23371;DHT22;11858;51.056;3.712;2023-04-24T13:24:50;20.60;99.90
23371;DHT22;11858;51.056;3.712;2023-04-24T13:27:17;21.90;99.90
23371;DHT22;11858;51.056;3.712;2023-04-24T13:29:42;21.90;99.90
23371;DHT22;11858;51.056;3.712;2023-04-24T13:32:09;22.10;99.90
23371;DHT22;11858;51.056;3.712;2023-04-24T13:34:34;21.90;99.90
23371;DHT22;11858;51.056;3.712;2023-04-24T13:37:01;22.10;99.90
23371;DHT22;11858;51.056;3.712;2023-04-24T13:39:26;22.40;99.90
23371;DHT22;11858;51.056;3.712;2023-04-24T13:41:53;22.10;99.90
23371;DHT22;11858;51.056;3.712;2023-04-24T13:44:19;21.20;99.90
23371;DHT22;11858;51.056;3.712;2023-04-24T13:46:47;20.30;99.90
23371;DHT22;11858;51.056;3.712;2023-04-24T13:49:13;20.40;99.90
23371;DHT22;11858;51.056;3.712;2023-04-24T13:51:40;20.70;99.90
23371;DHT22;11858;51.056;3.712;2023-04-24T13:54:06;21.80;99.90
23371;DHT22;11858;51.056;3.712;2023-04-24T13:56:32;22.20;99.90
23371;DHT22;11858;51.056;3.712;2023-04-24T13:58:59;21.90;99.90
23371;DHT22;11858;51.056;3.712;2023-04-24T14:01:26;21.70;99.90
23371;DHT22;11858;51.056;3.712;2023-04-24T14:03:52;21.80;99.90
23371;DHT22;11858;51.056;3.712;2023-04-24T14:06:19;21.70;99.90
23371;DHT22;11858;51.056;3.712;2023-04-24T14:08:45;21.60;99.90
23371;DHT22;11858;51.056;3.712;2023-04-24T14:11:11;20.50;99.90
23371;DHT22;11858;51.056;3.712;2023-04-24T14:13:37;20.20;99.90
23371;DHT22;11858;51.056;3.712;2023-04-24T14:16:03;20.80;99.90
23371;DHT22;11858;51.056;3.712;2023-04-24T14:18:29;21.50;99.90
23371;DHT22;11858;51.056;3.712;2023-04-24T14:20:55;20.60;99.90
23371;DHT22;11858;51.056;3.712;2023-04-24T14:23:20;19.90;99.90
23371;DHT22;11858;51.056;3.712;2023-04-24T14:25:46;19.40;99.90
23371;DHT22;11858;51.056;3.712;2023-04-24T14:28:16;18.50;99.90
23371;DHT22;11858;51.056;3.712;2023-04-24T14:30:42;18.80;99.90
23371;DHT22;11858;51.056;3.712;2023-04-24T14:33:08;19.30;99.90
23371;DHT22;11858;51.056;3.712;2023-04-24T14:35:33;20.10;99.90
23371;DHT22;11858;51.056;3.712;2023-04-24T14:38:00;20.80;99.90
23371;DHT22;11858;51.056;3.712;2023-04-24T14:40:26;22.30;99.90
23371;DHT22;11858;51.056;3.712;2023-04-24T14:42:52;21.80;99.90
23371;DHT22;11858;51.056;3.712;2023-04-24T14:45:18;21.00;99.90
23371;DHT22;11858;51.056;3.712;2023-04-24T14:47:44;19.90;99.90
23371;DHT22;11858;51.056;3.712;2023-04-24T14:50:10;19.20;99.90
23371;DHT22;11858;51.056;3.712;2023-04-24T14:52:37;18.70;99.90
23371;DHT22;11858;51.056;3.712;2023-04-24T14:55:04;18.10;99.90
23371;DHT22;11858;51.056;3.712;2023-04-24T14:57:30;17.50;99.90
23371;DHT22;11858;51.056;3.712;2023-04-24T14:59:55;17.10;99.90
23371;DHT22;11858;51.056;3.712;2023-04-24T15:02:21;16.80;99.90
23371;DHT22;11858;51.056;3.712;2023-04-24T15:04:47;16.60;99.90
23371;DHT22;11858;51.056;3.712;2023-04-24T15:07:12;16.40;99.90
23371;DHT22;11858;51.056;3.712;2023-04-24T15:09:38;16.60;99.90
23371;DHT22;11858;51.056;3.712;2023-04-24T15:12:04;16.60;99.90
23371;DHT22;11858;51.056;3.712;2023-04-24T15:14:29;16.60;99.90
23371;DHT22;11858;51.056;3.712;2023-04-24T15:16:55;16.40;99.90
23371;DHT22;11858;51.056;3.712;2023-04-24T15:19:21;16.10;99.90
23371;DHT22;11858;51.056;3.712;2023-04-24T15:21:46;16.10;99.90
23371;DHT22;11858;51.056;3.712;2023-04-24T15:24:12;16.00;99.90
23371;DHT22;11858;51.056;3.712;2023-04-24T15:26:38;15.70;99.90
23371;DHT22;11858;51.056;3.712;2023-04-24T15:29:04;15.60;99.90
23371;DHT22;11858;51.056;3.712;2023-04-24T15:31:29;15.80;99.90
23371;DHT22;11858;51.056;3.712;2023-04-24T15:33:55;16.00;99.90
23371;DHT22;11858;51.056;3.712;2023-04-24T15:36:21;16.10;99.90
23371;DHT22;11858;51.056;3.712;2023-04-24T15:38:47;16.00;99.90
23371;DHT22;11858;51.056;3.712;2023-04-24T15:41:12;16.10;99.90